Time;durP1;ratioP1;P1;durP2;ratioP2;P2;SDS_P1;SDS_P2;PMS_P1;PMS_P2;Temp;Humidity;BMP_temperature;BMP_pressure;BME280_temperature;BME280_humidity;BME280_pressure;Samples;Min_cycle;Max_cycle;Signal;HPM_P1;HPM_P2
2023/07/16 00:01:46;;;;;;;4.70;1.63;;;20.00;99.90;;;;;;5005301;28;20025;-56
2023/07/16 00:04:12;;;;;;;2.03;1.17;;;20.00;99.90;;;;;;5012768;28;20037;-58
2023/07/16 00:06:38;;;;;;;2.70;1.50;;;20.00;99.90;;;;;;5005372;28;20390;-59
2023/07/16 00:09:03;;;;;;;1.73;1.20;;;20.00;99.90;;;;;;4995289;28;20061;-59
2023/07/16 00:11:29;;;;;;;5.15;1.42;;;20.00;99.90;;;;;;5005733;28;20036;-56
2023/07/16 00:13:55;;;;;;;3.92;1.67;;;20.00;99.90;;;;;;5012303;28;20703;-57
2023/07/16 00:16:21;;;;;;;2.67;1.70;;;20.10;99.90;;;;;;5005503;28;20061;-59
2023/07/16 00:18:47;;;;;;;5.35;1.33;;;20.10;99.90;;;;;;5012557;28;20030;-58
2023/07/16 00:21:13;;;;;;;3.00;1.20;;;20.20;99.90;;;;;;5005280;28;20045;-57
2023/07/16 00:23:39;;;;;;;2.35;1.00;;;20.10;99.90;;;;;;5012076;28;20033;-58
2023/07/16 00:26:04;;;;;;;4.15;1.08;;;20.10;99.90;;;;;;4987557;28;20026;-55
2023/07/16 00:28:30;;;;;;;1.25;0.82;;;20.10;99.90;;;;;;4978387;28;20079;-59
2023/07/16 00:30:56;;;;;;;2.60;1.15;;;20.10;99.90;;;;;;5003724;28;20081;-58
2023/07/16 00:33:22;;;;;;;3.72;1.10;;;20.00;99.90;;;;;;5005918;28;20395;-57
2023/07/16 00:35:49;;;;;;;1.50;0.90;;;20.10;99.90;;;;;;4990510;28;20034;-59
2023/07/16 00:38:17;;;;;;;2.10;1.02;;;20.10;99.90;;;;;;5011622;28;20026;-59
2023/07/16 00:40:43;;;;;;;3.15;1.52;;;20.10;99.90;;;;;;4986738;28;20537;-59
2023/07/16 00:43:08;;;;;;;1.13;0.80;;;20.10;99.90;;;;;;5006128;28;20062;-58
2023/07/16 00:45:34;;;;;;;1.45;0.60;;;20.10;99.90;;;;;;4994694;28;20103;-58
2023/07/16 00:48:00;;;;;;;4.57;1.05;;;20.00;99.90;;;;;;5007570;28;20074;-57
2023/07/16 00:50:26;;;;;;;3.95;0.90;;;20.00;99.90;;;;;;5011786;28;20397;-57
2023/07/16 00:52:51;;;;;;;7.30;0.82;;;20.00;99.90;;;;;;4989998;28;20508;-58
2023/07/16 00:55:17;;;;;;;1.40;0.85;;;20.00;99.90;;;;;;5003684;28;20028;-59
2023/07/16 00:57:44;;;;;;;1.42;0.90;;;19.90;99.90;;;;;;5009845;28;20096;-59
2023/07/16 01:00:11;;;;;;;2.67;1.25;;;19.80;99.90;;;;;;4993399;28;20028;-59
2023/07/16 01:02:37;;;;;;;2.00;0.70;;;19.80;99.90;;;;;;5010877;28;20065;-59
2023/07/16 01:05:03;;;;;;;2.10;0.95;;;19.80;99.90;;;;;;4975687;28;20121;-59
2023/07/16 01:07:31;;;;;;;2.47;1.30;;;19.80;99.90;;;;;;4985024;28;20505;-59
2023/07/16 01:09:58;;;;;;;2.40;0.70;;;19.80;99.90;;;;;;5000130;28;20041;-59
2023/07/16 01:12:26;;;;;;;3.20;1.45;;;19.70;99.90;;;;;;4975859;28;20431;-58
2023/07/16 01:14:53;;;;;;;1.67;0.98;;;19.80;99.90;;;;;;4987150;28;20042;-59
2023/07/16 01:17:19;;;;;;;2.03;0.93;;;19.80;99.90;;;;;;4993720;28;20080;-59
2023/07/16 01:19:44;;;;;;;4.22;0.52;;;19.80;99.90;;;;;;5007093;28;20029;-56
2023/07/16 01:22:42;;;;;;;2.70;1.48;;;19.80;99.90;;;;;;4993652;28;20060;-59
2023/07/16 01:25:17;;;;;;;1.60;0.88;;;19.60;99.90;;;;;;4987092;28;20618;-60
2023/07/16 01:28:20;;;;;;;2.08;0.77;;;19.60;99.90;;;;;;5009068;28;20042;-60
2023/07/16 01:30:48;;;;;;;1.13;0.73;;;19.60;99.90;;;;;;5006932;28;20045;-60
2023/07/16 01:33:16;;;;;;;6.30;1.05;;;19.60;99.90;;;;;;4990324;28;20113;-59
2023/07/16 01:35:43;;;;;;;4.45;1.02;;;19.60;99.90;;;;;;4993838;28;20017;-60
2023/07/16 01:38:11;;;;;;;2.97;1.13;;;19.60;99.90;;;;;;4989331;28;20034;-57
2023/07/16 01:40:36;;;;;;;2.60;1.35;;;19.60;99.90;;;;;;5006219;28;20034;-60
2023/07/16 01:43:02;;;;;;;2.28;1.05;;;19.60;99.90;;;;;;4990373;28;20031;-60
2023/07/16 01:45:28;;;;;;;3.40;0.98;;;19.50;99.90;;;;;;5011104;28;20061;-59
2023/07/16 01:48:30;;;;;;;0.88;0.57;;;19.40;99.90;;;;;;5005448;28;20025;-60
2023/07/16 01:50:55;;;;;;;1.55;0.80;;;19.40;99.90;;;;;;5010704;28;20570;-60
2023/07/16 01:53:21;;;;;;;1.02;0.75;;;19.40;99.90;;;;;;5005508;28;20109;-59
2023/07/16 01:55:47;;;;;;;1.52;0.82;;;19.40;99.90;;;;;;5011098;28;20083;-60
2023/07/16 01:58:13;;;;;;;2.15;0.70;;;19.30;99.90;;;;;;5006632;28;20036;-60
2023/07/16 02:00:39;;;;;;;2.00;0.82;;;19.20;99.90;;;;;;5010915;28;20032;-60
2023/07/16 02:03:05;;;;;;;0.93;0.75;;;19.20;99.90;;;;;;5006096;28;20047;-60
2023/07/16 02:05:31;;;;;;;1.75;0.98;;;19.10;99.90;;;;;;5010741;28;20026;-59
2023/07/16 02:07:56;;;;;;;3.13;0.75;;;19.10;99.90;;;;;;4988811;28;20117;-60
2023/07/16 02:10:22;;;;;;;1.48;0.90;;;19.20;99.90;;;;;;5010611;28;20034;-59
2023/07/16 02:12:48;;;;;;;5.15;1.30;;;19.20;99.90;;;;;;5006158;28;20030;-60
2023/07/16 02:15:14;;;;;;;1.35;0.73;;;19.20;99.90;;;;;;5004427;28;20054;-59
2023/07/16 02:17:39;;;;;;;1.70;0.75;;;19.10;99.90;;;;;;4991977;28;20029;-59
2023/07/16 02:20:06;;;;;;;3.78;0.73;;;19.20;99.90;;;;;;5007513;28;20041;-59
2023/07/16 02:22:36;;;;;;;2.33;0.68;;;19.10;99.90;;;;;;5010566;28;20076;-60
2023/07/16 02:25:03;;;;;;;1.88;1.00;;;19.10;99.90;;;;;;5007024;28;20432;-58
2023/07/16 02:27:28;;;;;;;3.28;1.02;;;19.00;99.90;;;;;;5010784;28;20026;-59
2023/07/16 02:29:55;;;;;;;6.15;1.10;;;19.00;99.90;;;;;;4988710;28;20042;-59
2023/07/16 02:32:21;;;;;;;2.50;1.05;;;19.00;99.90;;;;;;5009075;28;20109;-59
2023/07/16 02:34:46;;;;;;;3.50;1.10;;;19.00;99.90;;;;;;4996286;28;20500;-59
2023/07/16 02:37:12;;;;;;;3.45;1.05;;;19.10;99.90;;;;;;4979828;28;20034;-59
2023/07/16 02:39:44;;;;;;;3.22;0.65;;;19.10;99.90;;;;;;5006091;28;20022;-59
2023/07/16 02:42:10;;;;;;;2.78;0.80;;;19.10;99.90;;;;;;5010188;28;20108;-60
2023/07/16 02:44:44;;;;;;;1.30;0.75;;;19.10;99.90;;;;;;5006101;28;20489;-60
2023/07/16 02:47:11;;;;;;;1.17;0.93;;;19.10;99.90;;;;;;5010683;28;20489;-60
2023/07/16 02:49:37;;;;;;;0.93;0.70;;;19.10;99.90;;;;;;4988842;28;20065;-60
2023/07/16 02:52:04;;;;;;;1.33;0.55;;;19.00;99.90;;;;;;5010116;28;20054;-59
2023/07/16 02:54:29;;;;;;;5.18;0.60;;;19.00;99.90;;;;;;5005783;28;20445;-59
2023/07/16 02:56:55;;;;;;;2.45;0.95;;;19.00;99.90;;;;;;5010454;28;20029;-60
2023/07/16 02:59:21;;;;;;;3.78;0.70;;;18.90;99.90;;;;;;5005950;28;20072;-60
2023/07/16 03:01:47;;;;;;;1.83;0.55;;;18.90;99.90;;;;;;5010422;28;20077;-60
2023/07/16 03:04:12;;;;;;;3.80;1.35;;;18.80;99.90;;;;;;5006087;28;20072;-60
2023/07/16 03:06:38;;;;;;;1.60;0.75;;;18.90;99.90;;;;;;5014023;28;20108;-60
2023/07/16 03:09:04;;;;;;;1.23;0.65;;;18.80;99.90;;;;;;5009541;28;20061;-59
2023/07/16 03:11:29;;;;;;;1.17;0.68;;;18.80;99.90;;;;;;5014037;28;20034;-59
2023/07/16 03:13:55;;;;;;;2.30;0.73;;;18.80;99.90;;;;;;5009162;28;20389;-60
2023/07/16 03:16:21;;;;;;;2.90;1.42;;;18.80;99.90;;;;;;5008630;28;20080;-60
2023/07/16 03:18:47;;;;;;;0.85;0.70;;;18.80;99.90;;;;;;5009340;28;20513;-60
2023/07/16 03:21:13;;;;;;;1.17;0.95;;;18.80;99.90;;;;;;5013703;28;20026;-60
2023/07/16 03:23:38;;;;;;;2.45;0.73;;;18.70;99.90;;;;;;4982631;28;20029;-60
2023/07/16 03:26:04;;;;;;;7.10;0.57;;;18.60;99.90;;;;;;5011683;28;20124;-60
2023/07/16 03:28:30;;;;;;;3.40;0.85;;;18.50;99.90;;;;;;5009446;28;20052;-60
2023/07/16 03:30:55;;;;;;;3.63;0.98;;;18.50;99.90;;;;;;5013427;28;20059;-60
2023/07/16 03:33:21;;;;;;;0.85;0.60;;;18.50;99.90;;;;;;5009314;28;20109;-59
2023/07/16 03:35:49;;;;;;;2.88;0.93;;;18.50;99.90;;;;;;4995943;28;20097;-59
2023/07/16 03:38:15;;;;;;;2.15;0.63;;;18.40;99.90;;;;;;4991657;28;20040;-59
2023/07/16 03:40:48;;;;;;;2.00;0.82;;;18.40;99.90;;;;;;5013064;28;20029;-60
2023/07/16 03:43:16;;;;;;;0.63;0.40;;;18.40;99.90;;;;;;5008916;28;20060;-59
2023/07/16 03:45:42;;;;;;;1.70;0.50;;;18.30;99.90;;;;;;5013240;28;20032;-59
2023/07/16 03:48:08;;;;;;;3.67;0.75;;;18.30;99.90;;;;;;5008529;28;20054;-60
2023/07/16 03:50:35;;;;;;;3.70;0.75;;;18.30;99.90;;;;;;5019878;23;20111;-59
2023/07/16 03:53:03;;;;;;;1.63;0.80;;;18.30;99.90;;;;;;5051011;28;20025;-58
2023/07/16 03:55:29;;;;;;;1.10;0.70;;;18.10;99.90;;;;;;5050810;28;20067;-59
2023/07/16 03:57:55;;;;;;;1.35;0.63;;;18.10;99.90;;;;;;5052656;28;20039;-57
2023/07/16 04:00:20;;;;;;;1.48;0.77;;;18.20;99.90;;;;;;5059760;28;20029;-58
2023/07/16 04:02:46;;;;;;;2.65;0.80;;;18.20;99.90;;;;;;5051092;28;20025;-59
2023/07/16 04:05:12;;;;;;;2.35;0.90;;;18.20;99.90;;;;;;5032821;28;20032;-58
2023/07/16 04:07:38;;;;;;;1.35;0.60;;;18.30;99.90;;;;;;5052055;28;20372;-58
2023/07/16 04:10:05;;;;;;;0.82;0.55;;;18.20;99.90;;;;;;5033962;28;20037;-59
2023/07/16 04:12:30;;;;;;;1.13;0.68;;;18.20;99.90;;;;;;5052002;28;20036;-58
2023/07/16 04:14:58;;;;;;;1.50;1.00;;;18.30;99.90;;;;;;5053953;28;20032;-59
2023/07/16 04:17:24;;;;;;;3.10;0.65;;;18.20;99.90;;;;;;5052263;28;20109;-58
2023/07/16 04:19:50;;;;;;;1.67;0.90;;;18.10;99.90;;;;;;5051861;28;20378;-57
2023/07/16 04:22:16;;;;;;;2.60;0.82;;;18.00;99.90;;;;;;5033832;28;20096;-59
2023/07/16 04:24:42;;;;;;;1.65;0.88;;;18.10;99.90;;;;;;5052006;28;20389;-58
2023/07/16 04:27:07;;;;;;;3.08;0.70;;;18.20;99.90;;;;;;5051749;28;20032;-59
2023/07/16 04:29:33;;;;;;;3.33;1.23;;;18.10;99.90;;;;;;5034369;28;20039;-60
2023/07/16 04:31:59;;;;;;;3.05;1.08;;;18.10;99.90;;;;;;5051332;28;20033;-59
2023/07/16 04:34:25;;;;;;;3.08;0.90;;;18.10;99.90;;;;;;5051328;28;20028;-59
2023/07/16 04:36:50;;;;;;;5.55;0.93;;;18.20;99.90;;;;;;5051343;28;20025;-59
2023/07/16 04:39:16;;;;;;;1.30;0.77;;;18.20;99.90;;;;;;5051532;28;20033;-59
2023/07/16 04:41:42;;;;;;;7.20;1.10;;;18.20;99.90;;;;;;5036455;28;20029;-58
2023/07/16 04:44:08;;;;;;;4.88;0.82;;;18.20;99.90;;;;;;5051433;28;20029;-59
2023/07/16 04:46:33;;;;;;;1.77;0.63;;;18.20;99.90;;;;;;5035923;28;20041;-59
2023/07/16 04:49:00;;;;;;;4.78;0.75;;;18.20;99.90;;;;;;5051512;28;20067;-59
2023/07/16 04:51:26;;;;;;;2.33;0.77;;;18.20;99.90;;;;;;5050604;28;20102;-59
2023/07/16 04:53:53;;;;;;;1.17;0.68;;;18.10;99.90;;;;;;5051132;28;20056;-59
2023/07/16 04:56:18;;;;;;;6.32;1.65;;;18.20;99.90;;;;;;5050917;28;20017;-59
2023/07/16 04:58:44;;;;;;;2.58;1.05;;;18.10;99.90;;;;;;5053393;28;20036;-59
2023/07/16 05:01:10;;;;;;;1.00;0.60;;;18.00;99.90;;;;;;5050351;28;20115;-59
2023/07/16 05:03:36;;;;;;;2.65;0.73;;;18.00;99.90;;;;;;5050932;28;20028;-59
2023/07/16 05:06:03;;;;;;;2.58;0.75;;;18.00;99.90;;;;;;5032219;28;20500;-59
2023/07/16 05:08:29;;;;;;;4.13;0.88;;;18.00;99.90;;;;;;5033309;28;20021;-58
2023/07/16 05:10:55;;;;;;;2.17;0.93;;;18.10;99.90;;;;;;5050394;28;20041;-59
2023/07/16 05:13:20;;;;;;;3.10;0.77;;;18.00;99.90;;;;;;5051030;28;20029;-59
2023/07/16 05:15:46;;;;;;;1.27;0.63;;;18.00;99.90;;;;;;5053538;28;20025;-58
2023/07/16 05:18:12;;;;;;;1.17;0.60;;;18.10;99.90;;;;;;5041742;28;20428;-58
2023/07/16 05:20:38;;;;;;;2.20;0.80;;;18.00;99.90;;;;;;5050309;28;20056;-58
2023/07/16 05:23:04;;;;;;;1.35;0.68;;;18.20;99.90;;;;;;5050907;28;20033;-57
2023/07/16 05:25:30;;;;;;;2.67;1.15;;;18.20;99.90;;;;;;5030545;28;20480;-58
2023/07/16 05:27:56;;;;;;;5.63;0.65;;;18.20;99.90;;;;;;5043694;28;20056;-57
2023/07/16 05:30:22;;;;;;;2.45;0.77;;;18.30;99.90;;;;;;5040796;28;20051;-57
2023/07/16 05:32:47;;;;;;;3.08;1.10;;;18.30;99.90;;;;;;5039790;28;20028;-56
2023/07/16 05:35:14;;;;;;;2.33;0.68;;;18.20;99.90;;;;;;5029898;28;20029;-53
2023/07/16 05:37:40;;;;;;;2.78;1.15;;;18.30;99.90;;;;;;5038043;28;20056;-69
2023/07/16 05:40:08;;;;;;;3.80;0.88;;;18.30;99.90;;;;;;5036679;28;20064;-70
2023/07/16 05:42:35;;;;;;;0.70;0.50;;;18.40;99.90;;;;;;5027993;28;20035;-70
2023/07/16 05:45:00;;;;;;;0.80;0.35;;;18.40;99.90;;;;;;5035297;28;20533;-69
2023/07/16 05:47:26;;;;;;;1.48;0.82;;;18.40;99.90;;;;;;5029135;28;20028;-69
2023/07/16 05:49:52;;;;;;;4.57;0.85;;;18.40;99.90;;;;;;5049301;28;20036;-74
2023/07/16 05:52:18;;;;;;;6.78;2.10;;;18.50;99.90;;;;;;5049967;28;20040;-72
2023/07/16 05:54:45;;;;;;;1.65;0.52;;;18.60;99.90;;;;;;5031820;28;20044;-75
2023/07/16 05:57:11;;;;;;;4.53;1.00;;;18.70;99.90;;;;;;5049469;28;20040;-71
2023/07/16 05:59:37;;;;;;;6.63;0.90;;;18.60;99.90;;;;;;5051783;28;20036;-77
2023/07/16 06:02:04;;;;;;;4.72;0.90;;;18.60;99.90;;;;;;5031178;28;20063;-71
2023/07/16 06:04:30;;;;;;;1.55;0.82;;;18.70;99.90;;;;;;5050030;28;20029;-69
2023/07/16 06:06:56;;;;;;;0.63;0.47;;;18.80;99.90;;;;;;5049963;28;20044;-69
2023/07/16 06:09:23;;;;;;;2.67;1.02;;;18.70;99.90;;;;;;5049810;28;20029;-60
2023/07/16 06:11:49;;;;;;;4.95;0.75;;;18.80;99.90;;;;;;5048276;28;20025;-60
2023/07/16 06:14:15;;;;;;;2.22;0.90;;;18.80;99.90;;;;;;5032702;28;20025;-61
2023/07/16 06:16:41;;;;;;;5.25;0.80;;;19.00;99.90;;;;;;5049564;28;20098;-60
2023/07/16 06:19:07;;;;;;;1.38;0.68;;;19.00;99.90;;;;;;5050349;28;20035;-60
2023/07/16 06:21:33;;;;;;;1.67;0.73;;;18.90;99.90;;;;;;5031361;28;20029;-61
2023/07/16 06:23:59;;;;;;;1.23;0.52;;;18.90;99.90;;;;;;5049596;28;20029;-61
2023/07/16 06:26:25;;;;;;;2.33;0.98;;;19.00;99.90;;;;;;5049885;28;20112;-61
2023/07/16 06:28:51;;;;;;;1.33;0.52;;;18.90;99.90;;;;;;5049426;28;20148;-61
2023/07/16 06:31:17;;;;;;;1.40;0.88;;;19.00;99.90;;;;;;5049837;28;20496;-60
2023/07/16 06:33:43;;;;;;;2.78;0.93;;;19.10;99.90;;;;;;5049066;28;20033;-61
2023/07/16 06:36:09;;;;;;;1.85;0.80;;;19.20;99.90;;;;;;5032338;28;20036;-62
2023/07/16 06:38:35;;;;;;;2.33;0.80;;;19.10;99.90;;;;;;5050724;28;20025;-62
2023/07/16 06:41:00;;;;;;;2.70;0.80;;;19.20;99.90;;;;;;5052512;28;20032;-60
2023/07/16 06:43:27;;;;;;;7.28;1.10;;;19.20;99.90;;;;;;5051789;28;20064;-61
2023/07/16 06:45:53;;;;;;;1.35;0.50;;;19.30;99.90;;;;;;5035960;28;20056;-60
2023/07/16 06:48:19;;;;;;;2.33;1.00;;;19.40;99.90;;;;;;5053008;28;20060;-60
2023/07/16 06:50:45;;;;;;;3.63;0.60;;;19.30;99.90;;;;;;5053530;28;20041;-59
2023/07/16 06:53:11;;;;;;;4.55;0.88;;;19.20;99.90;;;;;;5034555;28;20033;-60
2023/07/16 06:55:37;;;;;;;9.75;1.02;;;19.30;99.90;;;;;;5053329;28;20469;-60
2023/07/16 06:58:03;;;;;;;5.20;1.13;;;19.40;99.90;;;;;;5052736;28;20104;-60
2023/07/16 07:00:29;;;;;;;4.25;1.63;;;19.40;99.90;;;;;;5035583;28;20111;-60
2023/07/16 07:02:55;;;;;;;2.00;0.63;;;19.50;99.90;;;;;;5054705;28;20036;-56
2023/07/16 07:05:21;;;;;;;2.60;0.88;;;19.50;99.90;;;;;;5055969;28;20029;-59
2023/07/16 07:07:47;;;;;;;1.20;0.57;;;19.60;99.90;;;;;;5052499;28;20036;-59
2023/07/16 07:10:13;;;;;;;3.15;0.70;;;19.60;99.90;;;;;;5035136;28;20447;-60
2023/07/16 07:12:39;;;;;;;1.45;0.75;;;19.80;99.90;;;;;;5052036;28;20100;-59
2023/07/16 07:15:08;;;;;;;2.30;0.55;;;19.80;99.90;;;;;;5053434;28;20083;-59
2023/07/16 07:17:35;;;;;;;4.22;1.10;;;19.80;99.90;;;;;;5052666;28;20362;-68
2023/07/16 07:20:02;;;;;;;2.78;0.85;;;19.70;99.90;;;;;;5034463;28;20033;-60
2023/07/16 07:22:28;;;;;;;2.25;0.90;;;19.70;99.90;;;;;;5052190;28;20302;-60
2023/07/16 07:24:54;;;;;;;5.53;1.95;;;19.80;99.90;;;;;;5053167;28;20552;-60
2023/07/16 07:27:19;;;;;;;4.38;0.93;;;20.00;99.90;;;;;;5051929;28;20029;-59
2023/07/16 07:29:46;;;;;;;5.65;0.80;;;20.20;99.90;;;;;;5034792;28;20033;-59
2023/07/16 07:32:12;;;;;;;4.03;1.25;;;20.20;99.90;;;;;;5052824;28;20051;-59
2023/07/16 07:34:39;;;;;;;2.75;0.80;;;20.30;99.90;;;;;;5036679;28;20033;-60
2023/07/16 07:37:05;;;;;;;3.13;0.85;;;20.40;99.90;;;;;;5055689;28;20061;-60
2023/07/16 07:39:31;;;;;;;4.20;1.25;;;20.30;99.90;;;;;;5052463;28;20043;-62
2023/07/16 07:41:57;;;;;;;4.72;0.95;;;20.30;99.90;;;;;;5052629;28;20359;-61
2023/07/16 07:44:22;;;;;;;1.48;0.70;;;20.30;99.90;;;;;;5052230;28;20120;-61
2023/07/16 07:46:48;;;;;;;4.40;1.05;;;20.50;99.90;;;;;;5052497;28;20091;-60
2023/07/16 07:49:14;;;;;;;7.65;1.00;;;20.50;99.90;;;;;;5050827;28;20041;-60
2023/07/16 07:51:40;;;;;;;3.47;1.10;;;20.20;99.90;;;;;;5051906;28;20029;-61
2023/07/16 07:54:05;;;;;;;2.55;0.80;;;20.20;99.90;;;;;;5051735;28;20033;-60
2023/07/16 07:56:31;;;;;;;3.25;0.82;;;20.20;99.90;;;;;;5052334;28;20056;-59
2023/07/16 07:58:57;;;;;;;1.90;1.02;;;20.20;99.90;;;;;;5045199;28;20091;-60
2023/07/16 08:01:22;;;;;;;5.50;1.02;;;20.20;99.90;;;;;;5049232;28;20055;-60
2023/07/16 08:03:48;;;;;;;2.05;0.98;;;20.40;99.90;;;;;;5051204;28;20037;-60
2023/07/16 08:06:14;;;;;;;4.20;1.00;;;20.50;99.90;;;;;;5052044;28;20516;-60
2023/07/16 08:08:40;;;;;;;6.22;1.80;;;20.60;99.90;;;;;;5050371;28;20029;-60
2023/07/16 08:11:05;;;;;;;0.90;0.52;;;20.70;99.90;;;;;;5051636;28;20056;-60
2023/07/16 08:13:31;;;;;;;3.20;0.68;;;20.50;99.90;;;;;;5050426;28;20480;-60
2023/07/16 08:15:57;;;;;;;1.60;0.80;;;20.30;99.90;;;;;;5051168;28;20029;-60
2023/07/16 08:18:23;;;;;;;2.30;1.35;;;20.40;99.90;;;;;;5050507;28;20048;-60
2023/07/16 08:20:49;;;;;;;4.68;1.60;;;20.40;99.90;;;;;;5049749;28;20029;-60
2023/07/16 08:23:14;;;;;;;2.38;0.95;;;20.40;99.90;;;;;;5050869;28;20029;-60
2023/07/16 08:25:40;;;;;;;0.98;0.80;;;20.30;99.90;;;;;;5051838;28;20028;-59
2023/07/16 08:28:07;;;;;;;1.60;0.93;;;20.30;99.90;;;;;;5015369;28;20044;-60
2023/07/16 08:30:33;;;;;;;0.98;0.65;;;20.20;99.90;;;;;;5051831;28;20117;-60
2023/07/16 08:32:59;;;;;;;1.60;0.80;;;20.20;99.90;;;;;;5051251;28;20178;-60
2023/07/16 08:35:24;;;;;;;2.53;1.85;;;20.40;99.90;;;;;;5051464;28;20476;-69
2023/07/16 08:37:50;;;;;;;3.55;0.68;;;20.40;99.90;;;;;;5049748;28;20021;-69
2023/07/16 08:40:16;;;;;;;2.95;0.93;;;20.50;99.90;;;;;;5045457;28;20400;-68
2023/07/16 08:42:45;;;;;;;2.83;0.98;;;20.70;99.90;;;;;;5049058;28;20047;-68
2023/07/16 08:45:12;;;;;;;2.13;0.77;;;20.70;99.90;;;;;;5050604;28;20033;-68
2023/07/16 08:47:38;;;;;;;1.80;0.95;;;20.80;99.90;;;;;;5056935;28;20024;-69
2023/07/16 08:50:04;;;;;;;0.80;0.55;;;20.80;99.90;;;;;;5053015;28;20041;-69
2023/07/16 08:52:30;;;;;;;1.20;0.73;;;21.20;99.90;;;;;;5032884;28;20112;-69
2023/07/16 08:54:56;;;;;;;2.70;0.93;;;21.20;99.90;;;;;;5051354;28;20112;-69
2023/07/16 08:57:23;;;;;;;7.40;1.02;;;21.30;99.90;;;;;;5032884;28;20029;-68
2023/07/16 08:59:51;;;;;;;1.25;0.50;;;21.00;99.90;;;;;;5041414;28;20021;-69
2023/07/16 09:02:21;;;;;;;2.70;0.93;;;20.80;99.90;;;;;;5049921;28;20450;-69
2023/07/16 09:04:54;;;;;;;1.98;0.93;;;20.70;99.90;;;;;;5051628;28;20021;-58
2023/07/16 09:07:20;;;;;;;3.08;1.13;;;20.70;99.90;;;;;;5050607;28;20044;-55
2023/07/16 09:10:00;;;;;;;1.67;0.70;;;20.90;99.90;;;;;;5038634;28;20033;-75
2023/07/16 09:12:27;;;;;;;3.42;1.20;;;20.90;99.90;;;;;;5052598;28;20040;-73
2023/07/16 09:14:54;;;;;;;1.60;0.85;;;20.90;99.90;;;;;;5055778;28;20036;-70
2023/07/16 09:17:24;;;;;;;2.58;0.93;;;20.90;99.90;;;;;;5059503;28;20113;-68
2023/07/16 09:19:51;;;;;;;2.47;1.27;;;20.90;99.90;;;;;;5051006;28;20100;-67
2023/07/16 09:22:20;;;;;;;5.03;1.55;;;21.10;99.90;;;;;;5049806;28;20060;-74
2023/07/16 09:24:47;;;;;;;2.08;1.08;;;21.20;99.90;;;;;;5028963;28;20029;-73
2023/07/16 09:27:14;;;;;;;1.13;0.88;;;21.30;99.90;;;;;;5055115;28;20396;-77
2023/07/16 09:29:40;;;;;;;3.38;1.25;;;21.40;99.90;;;;;;5032912;28;20560;-76
2023/07/16 09:32:06;;;;;;;1.30;0.57;;;21.50;99.90;;;;;;5050758;28;20461;-74
2023/07/16 09:34:32;;;;;;;6.82;0.88;;;21.70;99.90;;;;;;5050118;28;20025;-69
2023/07/16 09:37:00;;;;;;;1.48;0.68;;;21.80;99.90;;;;;;5050409;28;20090;-70
2023/07/16 09:39:27;;;;;;;2.58;1.05;;;21.80;99.90;;;;;;5031557;28;20059;-75
2023/07/16 09:41:56;;;;;;;2.97;0.65;;;21.80;99.90;;;;;;5038623;28;20029;-77
2023/07/16 09:44:22;;;;;;;4.68;1.63;;;21.90;99.90;;;;;;5041117;28;20025;-77
2023/07/16 09:46:47;;;;;;;4.47;1.13;;;21.80;99.90;;;;;;5026233;28;20078;-77
2023/07/16 09:49:15;;;;;;;7.22;0.98;;;22.10;99.90;;;;;;5066694;28;20094;-76
2023/07/16 09:51:44;;;;;;;1.15;0.82;;;22.20;99.90;;;;;;5043091;23;20596;-62
2023/07/16 09:54:15;;;;;;;4.95;1.17;;;22.10;99.90;;;;;;5021707;28;20037;-62
2023/07/16 09:56:48;;;;;;;0.98;0.60;;;22.10;99.90;;;;;;5029854;28;20397;-62
2023/07/16 09:59:17;;;;;;;5.00;1.27;;;22.10;99.90;;;;;;5028749;28;20029;-63
2023/07/16 10:01:43;;;;;;;7.90;1.10;;;22.20;99.90;;;;;;5017968;28;20092;-62
2023/07/16 10:04:20;;;;;;;5.47;1.20;;;22.40;99.90;;;;;;5011507;28;20029;-62
2023/07/16 10:06:59;;;;;;;1.52;0.82;;;22.50;99.90;;;;;;5014473;28;20040;-63
2023/07/16 10:09:36;;;;;;;3.65;1.10;;;22.60;99.90;;;;;;5014926;28;20033;-62
2023/07/16 10:12:14;;;;;;;2.85;0.70;;;22.60;99.90;;;;;;5002728;28;20076;-62
2023/07/16 10:14:46;;;;;;;2.30;0.80;;;22.40;99.90;;;;;;4998381;28;20464;-72
2023/07/16 10:17:26;;;;;;;6.55;2.45;;;22.70;99.90;;;;;;5002068;28;20586;-71
2023/07/16 10:20:15;;;;;;;3.73;0.90;;;22.60;99.90;;;;;;5012259;28;20087;-71
2023/07/16 10:22:46;;;;;;;3.60;1.42;;;22.60;99.80;;;;;;5019019;28;20063;-73
2023/07/16 10:25:17;;;;;;;1.20;0.80;;;23.00;99.90;;;;;;5029821;28;20025;-71
2023/07/16 10:27:45;;;;;;;6.68;1.60;;;23.50;99.00;;;;;;5021559;28;20607;-72
2023/07/16 10:30:13;;;;;;;3.17;1.17;;;23.60;95.10;;;;;;5030211;28;20478;-71
2023/07/16 10:32:40;;;;;;;4.93;1.38;;;23.70;94.30;;;;;;5019915;28;20032;-72
2023/07/16 10:35:10;;;;;;;2.72;1.17;;;23.60;94.10;;;;;;5011184;28;20029;-72
2023/07/16 10:37:37;;;;;;;2.65;0.60;;;23.20;96.20;;;;;;5003745;28;20444;-72
2023/07/16 10:40:05;;;;;;;2.17;0.98;;;23.60;97.30;;;;;;5026717;28;20412;-71
2023/07/16 10:42:32;;;;;;;0.80;0.52;;;23.90;96.00;;;;;;5003060;28;20039;-73
2023/07/16 10:45:04;;;;;;;3.40;0.88;;;23.70;93.80;;;;;;5002048;28;20035;-74
2023/07/16 10:47:36;;;;;;;4.22;0.98;;;23.70;95.70;;;;;;5001226;28;20038;-72
2023/07/16 10:50:09;;;;;;;2.00;1.35;;;23.70;93.90;;;;;;4993977;28;20409;-72
2023/07/16 10:52:37;;;;;;;2.90;0.63;;;23.80;94.40;;;;;;5005340;28;20037;-72
2023/07/16 10:55:03;;;;;;;2.17;0.95;;;24.00;92.90;;;;;;5008300;28;20397;-73
2023/07/16 10:57:29;;;;;;;3.35;0.88;;;23.80;93.20;;;;;;5021121;28;20026;-73
2023/07/16 10:59:58;;;;;;;2.67;0.65;;;23.40;93.80;;;;;;5029884;28;20044;-73
2023/07/16 11:02:25;;;;;;;1.98;0.77;;;23.30;93.80;;;;;;5020624;28;20033;-73
2023/07/16 11:04:55;;;;;;;3.47;1.00;;;23.10;93.80;;;;;;5029786;28;20040;-73
2023/07/16 11:07:21;;;;;;;3.08;1.30;;;23.10;94.60;;;;;;5004011;28;20098;-73
2023/07/16 11:09:51;;;;;;;3.33;1.02;;;23.10;95.00;;;;;;5009465;28;20473;-72
2023/07/16 11:12:19;;;;;;;1.58;0.68;;;23.30;95.20;;;;;;5020712;28;20104;-72
2023/07/16 11:14:54;;;;;;;2.55;1.02;;;23.20;94.60;;;;;;5012264;28;20029;-72
2023/07/16 11:17:22;;;;;;;3.55;0.90;;;23.40;94.40;;;;;;5020598;28;20025;-72
2023/07/16 11:19:50;;;;;;;5.65;1.38;;;23.40;93.70;;;;;;5030067;28;20382;-72
2023/07/16 11:22:16;;;;;;;4.82;1.02;;;23.30;92.90;;;;;;4994614;28;20440;-72
2023/07/16 11:24:48;;;;;;;4.57;1.08;;;23.40;93.10;;;;;;5004453;28;20029;-71
2023/07/16 11:27:31;;;;;;;2.85;1.13;;;23.70;93.00;;;;;;4997086;28;20041;-72
2023/07/16 11:29:59;;;;;;;1.73;0.80;;;23.90;91.10;;;;;;4986060;28;20037;-73
2023/07/16 11:32:36;;;;;;;5.28;1.27;;;24.00;91.40;;;;;;5023687;28;20029;-73
2023/07/16 11:35:07;;;;;;;2.10;0.93;;;24.30;92.10;;;;;;5015279;28;20022;-73
2023/07/16 11:37:35;;;;;;;6.00;1.33;;;24.70;91.10;;;;;;5006367;28;20104;-73
2023/07/16 11:40:08;;;;;;;1.92;0.77;;;24.60;87.00;;;;;;5027327;28;20109;-72
2023/07/16 11:42:39;;;;;;;2.22;0.57;;;24.50;84.50;;;;;;4989998;28;20084;-72
2023/07/16 11:45:14;;;;;;;;;;;24.50;85.40;;;;;;5023511;28;20067;-71
2023/07/16 11:47:40;;;;;;;6.20;1.25;;;24.60;85.50;;;;;;5021983;28;19997;-70
2023/07/16 11:50:07;;;;;;;2.28;1.23;;;24.80;84.00;;;;;;5013785;28;20141;-71
2023/07/16 11:52:33;;;;;;;1.48;0.70;;;25.00;85.00;;;;;;5008240;28;20091;-70
2023/07/16 11:55:05;;;;;;;6.25;0.68;;;25.50;85.80;;;;;;5009503;28;20477;-71
2023/07/16 11:57:31;;;;;;;4.63;1.13;;;25.60;84.00;;;;;;5023222;28;20057;-68
2023/07/16 11:59:57;;;;;;;3.25;1.00;;;25.90;80.10;;;;;;5015317;28;20156;-72
2023/07/16 12:02:25;;;;;;;6.63;1.20;;;26.10;74.90;;;;;;5022285;28;20477;-71
2023/07/16 12:04:51;;;;;;;1.85;0.82;;;25.50;75.30;;;;;;5015834;28;20040;-73
2023/07/16 12:07:34;;;;;;;3.20;1.30;;;25.50;77.10;;;;;;4982340;28;20034;-74
2023/07/16 12:10:03;;;;;;;3.10;1.42;;;25.20;75.80;;;;;;4981107;28;20033;-72
2023/07/16 12:12:29;;;;;;;6.88;1.10;;;25.20;77.80;;;;;;5007934;28;20022;-73
2023/07/16 12:14:54;;;;;;;2.08;0.73;;;25.30;78.40;;;;;;5028435;28;20032;-74
2023/07/16 12:17:20;;;;;;;4.20;1.02;;;25.40;77.40;;;;;;5027205;28;20022;-73
2023/07/16 12:19:49;;;;;;;6.45;1.13;;;25.80;76.00;;;;;;5012183;28;20120;-72
2023/07/16 12:22:18;;;;;;;2.88;0.90;;;26.20;73.80;;;;;;5020002;28;20488;-74
2023/07/16 12:24:44;;;;;;;5.28;1.27;;;26.00;72.00;;;;;;4996037;28;20028;-73
2023/07/16 12:27:10;;;;;;;4.93;1.10;;;25.90;73.90;;;;;;4987797;28;20034;-74
2023/07/16 12:29:36;;;;;;;2.17;0.90;;;25.70;74.50;;;;;;4992375;28;20034;-73
2023/07/16 12:32:02;;;;;;;1.90;0.90;;;25.80;70.20;;;;;;5014390;28;20044;-73
2023/07/16 12:34:28;;;;;;;3.53;1.15;;;25.70;70.20;;;;;;5022950;28;20071;-73
2023/07/16 12:36:55;;;;;;;1.15;0.75;;;26.00;69.60;;;;;;5029700;28;20079;-73
2023/07/16 12:39:21;;;;;;;5.50;1.10;;;25.90;68.40;;;;;;5019517;28;20040;-73
2023/07/16 12:41:47;;;;;;;2.70;0.80;;;26.10;68.90;;;;;;4981663;28;20048;-73
2023/07/16 12:44:13;;;;;;;3.25;1.20;;;26.00;69.80;;;;;;5012240;28;20397;-73
2023/07/16 12:46:38;;;;;;;1.60;0.65;;;25.70;69.60;;;;;;5026654;28;20053;-74
2023/07/16 12:49:04;;;;;;;4.15;1.05;;;25.90;71.80;;;;;;5013543;28;20038;-72